Royal City, WA

12:30 AM PDT en Noviembre 01, 2014 (GMT -0700)
N Royal Lake | Change Station
CLOSE
Current Station
Estación meteorológica personal
Location: Othello, WA
Altura: 883 ft
Estaciones meteorológicas cercanas

Alt 883 ft 46.88 °N, 119.37 °W | Updated 14 minutes ago

Muy nublado
Muy nublado
45.7 ° F
Sensación térmica 46 ° F
N
0.0
Viento Variable Viento desde NE

Hoy
Alta -- | Baja -- ° F
--% Posibilidad de precipitaciones
Ayer
Alta -- | Baja -- ° F
Precip. -- pul
7:40 AM 5:42 PM
Gibosa creciente, 63% visible
Presión 29.79 pul
Visibilidad 10.0 Millas
Nubes Baja 11000 ft
Vientos helados 46 ° F
Punto de rocío 43 ° F
Humedad 91%
Precipitaciones 0.00 pul
Espesor de la nieve No disponible.
UV 0 de una escala de 12
Polen .30 de una escala de 12
Calidad del aire No disponible.
Flu Activity No disponible.
METAR KMWH 010652Z AUTO 00000KT 10SM FEW110 08/07 A2978 RMK AO2 SLP086 T00780067 TSNO

More Conditions Fewer Conditions

Presión 29.79 pul
Visibilidad 10.0 Millas
Nubes Baja 11000 ft
Vientos helados 46 ° F
Punto de rocío 43 ° F
Humedad 91%
Precipitaciones 0.00 pul
Espesor de la nieve No disponible.
UV 0 de una escala de 12
Polen .30 de una escala de 12
Calidad del aire No disponible.
Flu Activity No disponible.
METAR KMWH 010652Z AUTO 00000KT 10SM FEW110 08/07 A2978 RMK AO2 SLP086 T00780067 TSNO

More Conditions Fewer Conditions

10-Day Weather Forecast

Almanac

Astronomía

Nov. 01, 2014 Salida Puesta
Hora real
Crepúsculo civil
Crepúsculo náutico
Crepúsculo astronómico
Luna
Horas de luz
Horas de luz
Tomorrow will be .
, % of the Moon is Illuminated

Extremos de hoy

Máximos del estado Bajos del estado

Community

WunderPhotos

Upload Photos

1,766,866 ¡fotos cargadas!

WunderBlogs® & News

Nearby

Calidad del aire

  Calidad del aire Índice AQ Contaminante
Not available.

Grosos de nieve

Estación Profundido Altura

Actividad de terremotos

Ciudad Distance Mag. Tiempo y dato
Magnitud mínima muestra es 2,5.

Temperaturas de aguas costeras

Lugar Temperatura

Estaciones meteorológicas cercanas